Friday, July 20, 2018, 11:29 AM CDT
Back to Local

KIAB, Mcconnell Air Force Base

Location: Wichita, KS, United States Lat: 37.617
Local Time: 11:29 AM CDT (16:29 GMT) Lon: -97.267
Time Zone: US/Central Elev: 1371 ft

Show me the last for .
Show Decoded

2018-07-20 09:56 METAR KIAB 201456Z AUTO 09006KT 10SM CLR 29/21 A2990 RMK AO2 SLP111 T02850210
                 53012 =
2018-07-20 08:56 METAR KIAB 201356Z AUTO 07006KT 10SM CLR 27/21 A2989 RMK AO2 SLP109 T02670205 =
2018-07-20 07:56 METAR KIAB 201256Z AUTO 09006KT 10SM CLR 25/20 A2987 RMK AO2 SLP100 T02490197 =
2018-07-20 06:56 METAR KIAB 201156Z AUTO 05006KT 10SM CLR 23/20 A2986 RMK AO2 SLP097 70010
                 T02260195 10256 20217 52011 =
2018-07-20 05:56 METAR KIAB 201056Z AUTO 07005KT 10SM CLR 22/20 A2985 RMK AO2 SLP094 T02240195 =
2018-07-20 04:56 METAR KIAB 200956Z AUTO 05005KT 10SM CLR 23/20 A2984 RMK AO2 SLP090 T02250196 =
2018-07-20 03:56 METAR KIAB 200856Z AUTO 05008KT 10SM CLR 23/20 A2983 RMK AO2 SLP087 T02320201
                 53000 =
2018-07-20 02:56 METAR KIAB 200756Z AUTO 09004KT 10SM CLR 25/20 A2982 RMK AO2 SLP083 T02490199 =
2018-07-20 01:56 METAR KIAB 200656Z AUTO 13006KT 10SM CLR 25/21 A2981 RMK AO2 SLP080 T02490206 =
2018-07-20 00:56 METAR KIAB 200556Z AUTO 18007KT 10SM CLR 26/21 A2983 RMK AO2 SLP087 60010
                 T02560212 10364 20256 403750227 58007 =
2018-07-19 23:56 METAR KIAB 200456Z AUTO 13005KT 10SM CLR 27/22 A2986 RMK AO2 SLP097 T02670216 =
2018-07-19 22:56 METAR KIAB 200356Z AUTO 11012KT 10SM CLR 28/22 A2985 RMK AO2 SLP094 T02790219 =
2018-07-19 21:56 METAR KIAB 200256Z AUTO 08006KT 10SM FEW120 29/23 A2985 RMK AO2 SLP094 60010
                 T02900227 52018 =
2018-07-19 20:57 METAR KIAB 200157Z AUTO 15007KT 10SM FEW009 30/24 A2982 RMK AO2 LTG DSNT SE
                 SLP085 =
2018-07-19 20:56 METAR KIAB 200156Z AUTO 15008KT 10SM FEW012 30/24 A2982 RMK AO2 LTG DSNT SE
                 RAB18E41 SLP085 P0010 T02990235 =
2018-07-19 20:41 METAR KIAB 200141Z AUTO 12009KT 10SM SCT021 30/23 A2982 RMK AO2 LTG DSNT SE
                 RAB18E41 SLP085 =
2018-07-19 20:34 METAR KIAB 200134Z AUTO 10010KT 4SM -RA VCTS FEW002 SCT021 BKN130 30/24 A2983
                 RMK AO2 RAB18 SLP088 =
2018-07-19 20:31 METAR KIAB 200131Z AUTO 09009KT 4SM +RA VCTS FEW002 BKN022 BKN130 30/24 A2982
                 RMK AO2 RAB18 CIG 022V130 SLP085 =
2018-07-19 20:28 METAR KIAB 200128Z AUTO 10007KT 7SM +RA VCTS FEW002 SCT025 BKN047 BKN130 31/23
                 A2982 RMK AO2 RAB18 PRESFR SLP085 =
2018-07-19 20:18 METAR KIAB 200118Z AUTO 04010KT 10SM -RA FEW060 FEW080 SCT130 34/22 A2984 RMK
                 AO2 LTG DSNT E AND W RAB18 PRESRR SLP090 =
2018-07-19 19:56 METAR KIAB 200056Z AUTO 14003KT 10SM CLR 34/21 A2981 RMK AO2 SLP081 T03440214 =
2018-07-19 18:56 METAR KIAB 192356Z AUTO 18005KT 10SM CLR 36/20 A2980 RMK AO2 SLP076 T03620200
                 10375 20334 55015 =
2018-07-19 17:56 METAR KIAB 192256Z AUTO 21007KT 10SM CLR 37/23 A2980 RMK AO2 SLP076 T03660230 =
2018-07-19 16:56 METAR KIAB 192156Z AUTO 17006KT 10SM CLR 38/20 A2980 RMK AO2 SLP076 T03750203 =
2018-07-19 15:56 METAR KIAB 192056Z AUTO 14003KT 10SM CLR 37/21 A2984 RMK AO2 SLP090 T03700207
                 55000 =
2018-07-19 14:56 METAR KIAB 191956Z AUTO 22005KT 10SM FEW180 36/23 A2985 RMK AO2 SLP093 T03610226
                 =
2018-07-19 13:56 METAR KIAB 191856Z AUTO 19006KT 10SM CLR 36/23 A2984 RMK AO2 SLP090 T03550227 =
2018-07-19 12:56 METAR KIAB 191756Z AUTO 16006KT 10SM CLR 33/24 A2984 RMK AO2 SLP090 T03330239
                 10334 20233 57014 =
2018-07-19 11:56 METAR KIAB 191656Z AUTO 23005KT 10SM CLR 32/24 A2987 RMK AO2 SLP100 T03210238 =

Support USWX by starting your Amazon purchase here.